Hyderabad Weather



Hyderabad's Current Weather

Temprature 40.67o overcast clouds

overcast clouds

Rain: 0 %

Min Temprature40.67o
Max Temprature40.67o
Humidity16
Wind Speed5.86 m/h
Sun Rise05:45:32
Sun Set19:00:28
Current Time: 08-May-2021 15:40:16
Lat/Lon: 25.3924, 68.3737




Hyderabad's Geo Location



Hyderabad's Weather Forecast

Time Overall Temp Min Temp Max Temp Humidity Wind Speed Rain
08-May-2021 (Sat)
17:00:00 light rain 35.440 35.440 35.440 28 10.06 m/h 19 %
20:00:00 light rain 34.470 32.520 34.470 29 4.22 m/h 198 %
23:00:00 broken clouds 32.270 30.690 32.270 32 4.92 m/h 0 %
09-May-2021 (Sun)
02:00:00 few clouds 29.580 29.580 29.580 47 4.46 m/h 0 %
05:00:00 scattered clouds 28.200 28.200 28.200 65 5.95 m/h 0 %
08:00:00 scattered clouds 30.690 30.690 30.690 54 7.74 m/h 0 %
11:00:00 scattered clouds 37.990 37.990 37.990 26 5.94 m/h 0 %
14:00:00 clear sky 41.240 41.240 41.240 18 6.25 m/h 0 %
17:00:00 few clouds 39.060 39.060 39.060 24 10.52 m/h 0 %
20:00:00 clear sky 32.670 32.670 32.670 40 9.12 m/h 0 %
23:00:00 clear sky 30.370 30.370 30.370 54 9.09 m/h 0 %
10-May-2021 (Mon)
02:00:00 few clouds 28.750 28.750 28.750 66 7.68 m/h 0 %
05:00:00 clear sky 28.020 28.020 28.020 70 7.26 m/h 0 %
08:00:00 clear sky 30.610 30.610 30.610 42 9.36 m/h 0 %
11:00:00 clear sky 36.870 36.870 36.870 31 9.9 m/h 0 %
14:00:00 clear sky 39.770 39.770 39.770 24 9.99 m/h 0 %
17:00:00 clear sky 37.660 37.660 37.660 27 10.38 m/h 0 %
20:00:00 clear sky 32.110 32.110 32.110 42 10.24 m/h 0 %
23:00:00 clear sky 29.700 29.700 29.700 59 9.26 m/h 0 %
11-May-2021 (Tue)
02:00:00 clear sky 28.680 28.680 28.680 66 8.79 m/h 0 %
05:00:00 clear sky 27.950 27.950 27.950 73 8.62 m/h 0 %
08:00:00 clear sky 30.630 30.630 30.630 57 9.38 m/h 0 %
11:00:00 clear sky 38.210 38.210 38.210 24 9.31 m/h 0 %
14:00:00 clear sky 41.180 41.180 41.180 16 10.62 m/h 0 %
17:00:00 clear sky 38.840 38.840 38.840 19 11.72 m/h 0 %
20:00:00 clear sky 32.490 32.490 32.490 34 9.94 m/h 0 %
23:00:00 clear sky 29.920 29.920 29.920 52 9.08 m/h 0 %
12-May-2021 (Wed)
02:00:00 few clouds 28.670 28.670 28.670 66 10.99 m/h 0 %
05:00:00 clear sky 27.800 27.800 27.800 74 9.54 m/h 0 %
08:00:00 clear sky 30.380 30.380 30.380 59 8.78 m/h 0 %
11:00:00 clear sky 39.780 39.780 39.780 16 7.05 m/h 0 %
14:00:00 clear sky 42.850 42.850 42.850 5 10.21 m/h 0 %
17:00:00 clear sky 40.780 40.780 40.780 7 9.63 m/h 0 %
20:00:00 clear sky 32.810 32.810 32.810 32 9.94 m/h 0 %
23:00:00 clear sky 30.180 30.180 30.180 46 9.76 m/h 0 %
13-May-2021 (Thu)
02:00:00 clear sky 29.070 29.070 29.070 56 9.15 m/h 0 %
05:00:00 clear sky 28.060 28.060 28.060 64 5.92 m/h 0 %
08:00:00 clear sky 31.340 31.340 31.340 46 4.79 m/h 0 %
11:00:00 clear sky 39.310 39.310 39.310 15 2.58 m/h 0 %
14:00:00 clear sky 42.770 42.770 42.770 8 3.38 m/h 0 %


Hyderabad's Tourist Spots

Museums in Hyderabad

Famous Cities (60)